Time;durP1;ratioP1;P1;durP2;ratioP2;P2;SDS_P1;SDS_P2;PMS_P1;PMS_P2;Temp;Humidity;BMP_temperature;BMP_pressure;BME280_temperature;BME280_humidity;BME280_pressure;Samples;Min_cycle;Max_cycle;Signal;HPM_P1;HPM_P2
2023/12/18 00:00:37;;;;;;;7.10;2.35;;;8.90;99.90;;;;;;5003217;28;20176;-75
2023/12/18 00:03:03;;;;;;;6.53;2.33;;;9.00;99.90;;;;;;5002557;28;20066;-76
2023/12/18 00:05:28;;;;;;;2.88;1.48;;;9.00;99.90;;;;;;5003504;28;20052;-76
2023/12/18 00:07:54;;;;;;;8.25;2.10;;;8.90;99.90;;;;;;4996744;28;20085;-76
2023/12/18 00:10:20;;;;;;;4.97;2.67;;;8.90;99.90;;;;;;4984178;28;20045;-77
2023/12/18 00:12:45;;;;;;;6.65;1.75;;;9.00;99.90;;;;;;4986162;28;20525;-76
2023/12/18 00:15:11;;;;;;;9.93;3.28;;;9.00;99.90;;;;;;4993820;28;20046;-75
2023/12/18 00:17:36;;;;;;;8.15;2.35;;;9.00;99.90;;;;;;5004505;28;20030;-75
2023/12/18 00:20:02;;;;;;;3.60;2.35;;;9.00;99.90;;;;;;5002000;28;20038;-76
2023/12/18 00:22:28;;;;;;;5.22;2.10;;;9.00;99.90;;;;;;4984420;28;20046;-75
2023/12/18 00:24:53;;;;;;;5.60;1.73;;;9.00;99.90;;;;;;4993629;28;20135;-76
2023/12/18 00:27:19;;;;;;;12.48;2.50;;;8.90;99.90;;;;;;4979977;28;20057;-75
2023/12/18 00:29:44;;;;;;;5.50;2.22;;;8.90;99.90;;;;;;4984976;28;20049;-75
2023/12/18 00:32:10;;;;;;;4.53;1.52;;;8.90;99.90;;;;;;4985035;28;20050;-76
2023/12/18 00:34:36;;;;;;;4.90;1.23;;;8.90;99.90;;;;;;4999687;28;20041;-76
2023/12/18 00:37:01;;;;;;;5.00;2.25;;;8.90;99.90;;;;;;4984268;28;20077;-76
2023/12/18 00:39:27;;;;;;;5.68;2.47;;;8.90;99.90;;;;;;4995131;28;20489;-75
2023/12/18 00:41:52;;;;;;;6.03;2.22;;;8.90;99.90;;;;;;4986149;28;20664;-76
2023/12/18 00:44:18;;;;;;;3.10;1.95;;;8.90;99.90;;;;;;5002733;28;20607;-76
2023/12/18 00:46:43;;;;;;;5.35;1.88;;;8.90;99.90;;;;;;4992168;28;20042;-75
2023/12/18 00:49:09;;;;;;;2.95;2.53;;;8.90;99.90;;;;;;4984786;28;20164;-75
2023/12/18 00:51:34;;;;;;;7.57;2.30;;;8.90;99.90;;;;;;4995141;28;20400;-76
2023/12/18 00:54:00;;;;;;;3.22;1.75;;;8.90;99.90;;;;;;4982254;28;20473;-75
2023/12/18 00:56:26;;;;;;;5.80;1.95;;;8.90;99.90;;;;;;4993538;28;20046;-76
2023/12/18 00:58:51;;;;;;;3.90;1.73;;;8.90;99.90;;;;;;5002782;28;20125;-76
2023/12/18 01:01:17;;;;;;;8.48;2.30;;;8.90;99.90;;;;;;4987442;28;20738;-75
2023/12/18 01:03:42;;;;;;;3.22;1.40;;;8.90;99.90;;;;;;4982029;28;20146;-75
2023/12/18 01:06:08;;;;;;;7.20;2.08;;;8.90;99.90;;;;;;4966227;28;20051;-76
2023/12/18 01:08:33;;;;;;;3.65;2.42;;;9.00;99.90;;;;;;4996883;28;20461;-76
2023/12/18 01:10:59;;;;;;;6.90;2.40;;;8.90;99.90;;;;;;5002417;28;20111;-76
2023/12/18 01:13:24;;;;;;;2.10;1.60;;;8.90;99.90;;;;;;5002679;28;20050;-75
2023/12/18 01:15:50;;;;;;;6.32;3.15;;;8.90;99.90;;;;;;5001398;28;20038;-76
2023/12/18 01:18:16;;;;;;;7.50;1.92;;;8.90;99.90;;;;;;4996707;28;20126;-75
2023/12/18 01:20:41;;;;;;;5.90;1.98;;;8.90;99.90;;;;;;4994627;28;20045;-75
2023/12/18 01:23:07;;;;;;;4.80;1.30;;;8.90;99.90;;;;;;4949135;28;20096;-75
2023/12/18 01:25:32;;;;;;;9.02;3.53;;;8.90;99.90;;;;;;4986801;28;20034;-76
2023/12/18 01:27:59;;;;;;;3.85;2.00;;;8.90;99.90;;;;;;4985704;28;20145;-75
2023/12/18 01:30:25;;;;;;;7.40;1.55;;;8.90;99.90;;;;;;4983269;28;20707;-76
2023/12/18 01:32:51;;;;;;;6.78;1.88;;;8.90;99.90;;;;;;4998890;28;20132;-76
2023/12/18 01:35:17;;;;;;;3.80;1.90;;;8.90;99.90;;;;;;4982997;28;20163;-75
2023/12/18 01:37:42;;;;;;;5.35;2.38;;;9.00;99.90;;;;;;4990052;28;20042;-75
2023/12/18 01:40:08;;;;;;;8.95;2.40;;;9.00;99.90;;;;;;4986048;28;20046;-76
2023/12/18 01:42:34;;;;;;;4.72;1.77;;;9.00;99.90;;;;;;5000525;28;20050;-76
2023/12/18 01:44:59;;;;;;;9.40;2.15;;;9.00;99.90;;;;;;5000936;28;20104;-76
2023/12/18 01:47:25;;;;;;;3.10;2.03;;;9.00;99.90;;;;;;5001185;28;20074;-75
2023/12/18 01:49:51;;;;;;;8.85;1.52;;;9.00;99.90;;;;;;4987556;28;20038;-77
2023/12/18 01:52:18;;;;;;;3.95;2.15;;;9.00;99.90;;;;;;4994785;28;20064;-75
2023/12/18 01:54:45;;;;;;;4.13;1.50;;;8.90;99.90;;;;;;4992987;28;20116;-75
2023/12/18 01:57:12;;;;;;;7.35;1.50;;;8.90;99.90;;;;;;5000972;28;20076;-75
2023/12/18 01:59:38;;;;;;;2.65;1.45;;;8.90;99.90;;;;;;4997215;28;20081;-76
2023/12/18 02:02:04;;;;;;;3.95;1.88;;;8.90;99.90;;;;;;4983347;28;20077;-76
2023/12/18 02:04:30;;;;;;;3.10;1.77;;;8.90;99.90;;;;;;4975125;28;20072;-75
2023/12/18 02:07:00;;;;;;;4.60;1.40;;;8.90;99.90;;;;;;5001828;28;20125;-76
2023/12/18 02:09:26;;;;;;;3.92;1.55;;;8.90;99.90;;;;;;4987516;28;20066;-76
2023/12/18 02:14:24;;;;;;;;;;;9.00;99.90;;;;;;4961498;28;20042;-76
2023/12/18 02:16:49;;;;;;;6.35;1.73;;;8.90;99.90;;;;;;4964041;28;20685;-77
2023/12/18 02:19:22;;;;;;;2.63;1.65;;;9.00;99.90;;;;;;4963464;28;20039;-75
2023/12/18 02:21:47;;;;;;;7.03;1.80;;;9.00;99.90;;;;;;4963794;28;20042;-76
2023/12/18 02:24:13;;;;;;;3.45;1.30;;;9.00;99.90;;;;;;4962316;28;20054;-74
2023/12/18 02:26:39;;;;;;;1.45;1.33;;;9.00;99.90;;;;;;4963761;28;20051;-75
2023/12/18 02:29:04;;;;;;;3.67;1.83;;;9.00;99.90;;;;;;4945351;28;20049;-77
2023/12/18 02:31:30;;;;;;;10.65;1.50;;;9.00;99.90;;;;;;4962129;28;20075;-76
2023/12/18 02:33:56;;;;;;;7.28;1.23;;;9.00;99.90;;;;;;4978093;28;20055;-76
2023/12/18 02:36:22;;;;;;;2.70;1.15;;;9.00;99.90;;;;;;4929895;28;20042;-76
2023/12/18 02:38:47;;;;;;;5.50;1.50;;;9.00;99.90;;;;;;4962001;28;20564;-75
2023/12/18 02:41:13;;;;;;;2.13;1.70;;;9.00;99.90;;;;;;4945597;28;20097;-75
2023/12/18 02:43:39;;;;;;;2.85;1.88;;;9.00;99.90;;;;;;4978099;28;20082;-75
2023/12/18 02:46:04;;;;;;;7.40;2.05;;;9.00;99.90;;;;;;4945232;28;20039;-75
2023/12/18 02:48:30;;;;;;;7.47;2.17;;;9.00;99.90;;;;;;4961641;28;20038;-76
2023/12/18 02:50:55;;;;;;;6.97;2.67;;;8.90;99.90;;;;;;4977784;28;20085;-76
2023/12/18 02:53:21;;;;;;;4.15;1.60;;;8.90;99.90;;;;;;4962467;28;20062;-76
2023/12/18 02:55:46;;;;;;;4.35;2.13;;;8.90;99.90;;;;;;4962798;28;20034;-76
2023/12/18 02:58:12;;;;;;;3.72;1.83;;;9.00;99.90;;;;;;4945530;28;20053;-75
2023/12/18 03:00:38;;;;;;;12.80;1.63;;;8.90;99.90;;;;;;4962612;28;20046;-74
2023/12/18 03:03:03;;;;;;;3.60;1.50;;;8.90;99.90;;;;;;4962349;28;20039;-75
2023/12/18 03:05:29;;;;;;;4.70;1.63;;;8.90;99.90;;;;;;4961399;28;20054;-76
2023/12/18 03:07:55;;;;;;;6.25;2.45;;;8.90;99.90;;;;;;4976050;28;20074;-76
2023/12/18 03:10:20;;;;;;;3.03;1.52;;;8.90;99.90;;;;;;4961588;28;20093;-76
2023/12/18 03:12:46;;;;;;;5.35;1.52;;;8.90;99.90;;;;;;4946063;28;20501;-75
2023/12/18 03:15:11;;;;;;;4.85;2.13;;;8.90;99.90;;;;;;4962468;28;20039;-75
2023/12/18 03:17:37;;;;;;;3.97;2.15;;;8.90;99.90;;;;;;4944649;28;20050;-75
2023/12/18 03:20:03;;;;;;;6.60;2.17;;;8.90;99.90;;;;;;4944938;28;20109;-76
2023/12/18 03:22:28;;;;;;;11.40;1.60;;;8.90;99.90;;;;;;4961547;28;20043;-76
2023/12/18 03:24:54;;;;;;;5.30;2.15;;;8.90;99.90;;;;;;4945143;28;20506;-76
2023/12/18 03:27:19;;;;;;;5.72;2.55;;;8.90;99.90;;;;;;4961379;28;20043;-77
2023/12/18 03:29:45;;;;;;;10.13;1.80;;;8.90;99.90;;;;;;4963294;28;20046;-76
2023/12/18 03:32:10;;;;;;;7.00;1.98;;;8.90;99.90;;;;;;4944815;28;20746;-75
2023/12/18 03:34:36;;;;;;;1.85;1.40;;;8.90;99.90;;;;;;4962565;28;20047;-75
2023/12/18 03:37:02;;;;;;;12.85;1.85;;;8.90;99.90;;;;;;4975027;28;20049;-76
2023/12/18 03:39:27;;;;;;;6.25;2.00;;;8.90;99.90;;;;;;4944837;28;20449;-76
2023/12/18 03:41:53;;;;;;;4.55;2.42;;;8.90;99.90;;;;;;4961964;28;20042;-76
2023/12/18 03:44:18;;;;;;;4.55;2.15;;;8.90;99.90;;;;;;4977546;28;20058;-75
2023/12/18 03:46:44;;;;;;;5.93;1.58;;;8.90;99.90;;;;;;4945037;28;20038;-75
2023/12/18 03:49:10;;;;;;;6.25;1.73;;;8.90;99.90;;;;;;4976598;28;20437;-75
2023/12/18 03:51:35;;;;;;;7.25;2.45;;;8.90;99.90;;;;;;4962075;28;20401;-75
2023/12/18 03:54:01;;;;;;;8.20;1.65;;;8.90;99.90;;;;;;4960658;28;20409;-76
2023/12/18 03:56:26;;;;;;;9.55;2.92;;;8.90;99.90;;;;;;4961940;28;20125;-76
2023/12/18 03:58:52;;;;;;;2.88;1.83;;;8.90;99.90;;;;;;4944719;28;20050;-76
2023/12/18 04:01:17;;;;;;;3.60;1.55;;;8.90;99.90;;;;;;4978033;28;20063;-75
2023/12/18 04:03:43;;;;;;;4.55;2.35;;;8.90;99.90;;;;;;4944307;28;20049;-74
2023/12/18 04:06:09;;;;;;;3.67;2.58;;;8.90;99.90;;;;;;4944224;28;20593;-75
2023/12/18 04:08:35;;;;;;;6.38;2.05;;;8.90;99.90;;;;;;4960815;28;20038;-75
2023/12/18 04:11:00;;;;;;;3.53;1.83;;;8.90;99.90;;;;;;4944471;28;20050;-76
2023/12/18 04:13:26;;;;;;;6.18;1.80;;;8.90;99.90;;;;;;4960456;28;20051;-76
2023/12/18 04:15:52;;;;;;;5.85;1.90;;;8.90;99.90;;;;;;4961412;28;20070;-76
2023/12/18 04:18:18;;;;;;;4.47;2.60;;;9.00;99.90;;;;;;4945466;28;20069;-75
2023/12/18 04:20:44;;;;;;;6.75;2.47;;;8.90;99.90;;;;;;4962159;28;20105;-77
2023/12/18 04:23:09;;;;;;;10.30;2.25;;;8.90;99.90;;;;;;4960179;28;20445;-75
2023/12/18 04:25:35;;;;;;;8.85;1.63;;;9.00;99.90;;;;;;4976030;28;20043;-76
2023/12/18 04:28:00;;;;;;;6.88;2.33;;;9.00;99.90;;;;;;4944537;28;20039;-76
2023/12/18 04:30:26;;;;;;;3.00;2.00;;;8.90;99.90;;;;;;4976853;28;20039;-75
2023/12/18 04:32:51;;;;;;;7.55;2.50;;;9.00;99.90;;;;;;4976466;28;20058;-76
2023/12/18 04:35:17;;;;;;;9.07;2.00;;;8.90;99.90;;;;;;4962041;28;20405;-76
2023/12/18 04:37:42;;;;;;;6.07;1.73;;;8.90;99.90;;;;;;4960745;28;20493;-75
2023/12/18 04:40:09;;;;;;;3.80;1.95;;;8.90;99.90;;;;;;4964861;28;20630;-75
2023/12/18 04:42:35;;;;;;;3.28;1.67;;;8.90;99.90;;;;;;4947330;28;20050;-75
2023/12/18 04:45:00;;;;;;;6.60;1.83;;;9.00;99.90;;;;;;4946539;28;20058;-76
2023/12/18 04:47:26;;;;;;;6.25;1.80;;;8.90;99.90;;;;;;4948647;28;20046;-76
2023/12/18 04:49:51;;;;;;;5.38;1.48;;;8.90;99.90;;;;;;4965045;28;20054;-76
2023/12/18 04:52:17;;;;;;;2.10;1.77;;;8.90;99.90;;;;;;4947442;28;20077;-76
2023/12/18 04:54:42;;;;;;;2.00;1.80;;;8.90;99.90;;;;;;4964749;28;20050;-75
2023/12/18 04:57:08;;;;;;;3.78;1.63;;;8.90;99.90;;;;;;4947172;28;20089;-76
2023/12/18 04:59:33;;;;;;;4.72;1.77;;;8.90;99.90;;;;;;4964956;28;20042;-75
2023/12/18 05:01:59;;;;;;;3.55;1.75;;;8.90;99.90;;;;;;4964733;28;20046;-76
2023/12/18 05:04:25;;;;;;;3.80;2.28;;;8.90;99.90;;;;;;4979707;28;20097;-76
2023/12/18 05:06:50;;;;;;;5.78;2.25;;;8.90;99.90;;;;;;4946645;28;20047;-77
2023/12/18 05:09:16;;;;;;;6.05;2.00;;;8.90;99.90;;;;;;4966107;28;20122;-76
2023/12/18 05:11:41;;;;;;;10.45;2.17;;;8.90;99.90;;;;;;4964600;28;20043;-75
2023/12/18 05:14:08;;;;;;;4.30;1.50;;;8.90;99.90;;;;;;4979081;28;20397;-76
2023/12/18 05:16:33;;;;;;;6.68;1.77;;;8.90;99.90;;;;;;4964982;28;20050;-75
2023/12/18 05:18:59;;;;;;;16.23;2.10;;;8.90;99.90;;;;;;4947662;28;20481;-76
2023/12/18 05:21:25;;;;;;;5.05;2.08;;;8.90;99.90;;;;;;4947480;28;20043;-76
2023/12/18 05:23:51;;;;;;;5.20;1.60;;;8.90;99.90;;;;;;4962285;28;20054;-78
2023/12/18 05:26:16;;;;;;;3.88;1.48;;;8.90;99.90;;;;;;4947677;28;20197;-76
2023/12/18 05:28:42;;;;;;;3.83;1.77;;;9.00;99.90;;;;;;4964320;28;20592;-76
2023/12/18 05:31:11;;;;;;;7.68;2.03;;;8.90;99.90;;;;;;4946806;28;20046;-75
2023/12/18 05:33:37;;;;;;;5.32;1.70;;;8.90;99.90;;;;;;4979192;28;20073;-76
2023/12/18 05:36:03;;;;;;;7.00;1.40;;;8.90;99.90;;;;;;4946798;28;20518;-76
2023/12/18 05:38:29;;;;;;;2.47;1.48;;;8.90;99.90;;;;;;4946255;28;20173;-76
2023/12/18 05:40:54;;;;;;;10.20;1.85;;;8.90;99.90;;;;;;4947025;28;20776;-76
2023/12/18 05:43:20;;;;;;;5.50;2.65;;;8.90;99.90;;;;;;4964162;28;20043;-77
2023/12/18 05:45:45;;;;;;;4.10;2.33;;;8.90;99.90;;;;;;4963783;28;20422;-76
2023/12/18 05:48:11;;;;;;;6.18;1.80;;;8.90;99.90;;;;;;4946566;28;20049;-76
2023/12/18 05:50:37;;;;;;;3.28;1.73;;;8.90;99.90;;;;;;4945891;28;20046;-76
2023/12/18 05:53:02;;;;;;;6.82;2.03;;;8.90;99.90;;;;;;4962641;28;20038;-76
2023/12/18 05:55:28;;;;;;;5.00;2.00;;;8.90;99.90;;;;;;4947327;28;20413;-76
2023/12/18 05:57:53;;;;;;;6.90;1.75;;;8.90;99.90;;;;;;4946292;28;20108;-76
2023/12/18 06:00:19;;;;;;;6.85;2.13;;;9.00;99.90;;;;;;4964375;28;20064;-76
2023/12/18 06:02:45;;;;;;;9.45;2.28;;;8.90;99.90;;;;;;4979059;28;20061;-73
2023/12/18 06:05:10;;;;;;;5.53;1.90;;;9.00;99.90;;;;;;4963675;28;20568;-73
2023/12/18 06:07:36;;;;;;;4.78;2.03;;;9.00;99.90;;;;;;4977839;28;20066;-75
2023/12/18 06:10:02;;;;;;;5.93;2.15;;;9.00;99.90;;;;;;4945991;28;20070;-75
2023/12/18 06:12:27;;;;;;;4.45;1.73;;;9.00;99.90;;;;;;4946009;28;20081;-74
2023/12/18 06:14:53;;;;;;;5.05;1.73;;;9.00;99.90;;;;;;4953665;28;20046;-76
2023/12/18 06:17:18;;;;;;;5.38;2.35;;;9.00;99.90;;;;;;4950870;28;20039;-76
2023/12/18 06:19:44;;;;;;;9.60;2.67;;;9.00;99.90;;;;;;4958170;28;20114;-74
2023/12/18 06:22:10;;;;;;;6.28;2.40;;;9.00;99.90;;;;;;4954840;28;20090;-75
2023/12/18 06:24:38;;;;;;;6.75;3.08;;;8.90;99.90;;;;;;4975909;28;20039;-75
2023/12/18 06:27:04;;;;;;;9.70;2.33;;;9.00;99.90;;;;;;4942747;28;20516;-76
2023/12/18 06:29:30;;;;;;;10.80;3.10;;;9.00;99.90;;;;;;4977564;28;20101;-75
2023/12/18 06:31:55;;;;;;;4.22;1.90;;;9.00;99.90;;;;;;4963567;28;20057;-74
2023/12/18 06:34:21;;;;;;;4.10;1.58;;;9.00;99.90;;;;;;4963597;28;20118;-75
2023/12/18 06:36:46;;;;;;;5.30;1.85;;;9.00;99.90;;;;;;4961031;28;20501;-74
2023/12/18 06:39:13;;;;;;;2.15;1.60;;;8.90;99.90;;;;;;4958974;28;20039;-75
2023/12/18 06:41:39;;;;;;;3.45;1.88;;;9.00;99.90;;;;;;4945705;28;20058;-75
2023/12/18 06:44:05;;;;;;;5.57;1.58;;;9.00;99.90;;;;;;4976995;28;20058;-75
2023/12/18 06:46:32;;;;;;;5.53;1.77;;;9.00;99.90;;;;;;4952239;28;20057;-75
2023/12/18 06:48:58;;;;;;;14.77;1.70;;;9.00;99.90;;;;;;4948695;28;20043;-75
2023/12/18 06:51:24;;;;;;;7.38;2.40;;;9.00;99.90;;;;;;4975698;28;20504;-75
2023/12/18 06:53:50;;;;;;;6.85;3.17;;;9.00;99.90;;;;;;4961577;28;20312;-77
2023/12/18 06:56:16;;;;;;;1.75;1.35;;;9.00;99.90;;;;;;4948926;28;20122;-75
2023/12/18 06:58:41;;;;;;;4.65;1.48;;;9.00;99.90;;;;;;4951950;28;20074;-74
2023/12/18 07:01:07;;;;;;;5.05;2.42;;;9.00;99.90;;;;;;4955989;28;20062;-74
2023/12/18 07:03:33;;;;;;;3.03;1.55;;;9.00;99.90;;;;;;4961505;28;20046;-76
2023/12/18 07:05:59;;;;;;;2.67;1.77;;;9.00;99.90;;;;;;4962727;28;20043;-74
2023/12/18 07:08:24;;;;;;;8.18;3.00;;;9.00;99.90;;;;;;4960052;28;20401;-75
2023/12/18 07:10:50;;;;;;;2.28;2.08;;;9.00;99.90;;;;;;4976323;28;20046;-77
2023/12/18 07:13:15;;;;;;;8.50;2.75;;;9.00;99.90;;;;;;4960552;28;20058;-75
2023/12/18 07:15:41;;;;;;;5.07;1.88;;;9.00;99.90;;;;;;4960510;28;20081;-75
2023/12/18 07:18:12;;;;;;;6.22;2.08;;;9.00;99.90;;;;;;4960631;28;20177;-74
2023/12/18 07:20:37;;;;;;;10.85;2.88;;;9.00;99.90;;;;;;4960311;28;20046;-75
2023/12/18 07:23:03;;;;;;;6.85;1.95;;;8.90;99.90;;;;;;4942449;28;20049;-75
2023/12/18 07:25:29;;;;;;;4.00;1.90;;;9.00;99.90;;;;;;4943345;28;20042;-76
2023/12/18 07:27:55;;;;;;;4.95;2.53;;;9.00;99.90;;;;;;4943102;28;20069;-75
2023/12/18 07:30:20;;;;;;;9.23;3.72;;;9.00;99.90;;;;;;4943441;28;20141;-75
2023/12/18 07:32:46;;;;;;;6.38;3.97;;;8.90;99.90;;;;;;4961296;28;20031;-75
2023/12/18 07:35:11;;;;;;;10.82;4.45;;;8.90;99.90;;;;;;4975719;28;20271;-75
2023/12/18 07:37:37;;;;;;;22.63;5.95;;;8.90;99.90;;;;;;4974375;28;20494;-74
2023/12/18 07:40:03;;;;;;;8.15;5.13;;;8.80;99.90;;;;;;4942664;28;20047;-75
2023/12/18 07:42:29;;;;;;;6.75;4.97;;;8.80;99.90;;;;;;4959133;28;20071;-75
2023/12/18 07:44:54;;;;;;;7.47;4.55;;;8.70;99.90;;;;;;4975394;28;20456;-75
2023/12/18 07:47:20;;;;;;;9.75;4.53;;;8.70;99.90;;;;;;4975274;28;20051;-75
2023/12/18 07:49:47;;;;;;;13.73;5.43;;;8.70;99.90;;;;;;4961375;28;20078;-75
2023/12/18 07:52:12;;;;;;;6.80;5.05;;;8.70;99.90;;;;;;4959726;28;20049;-74
2023/12/18 07:54:38;;;;;;;7.80;5.07;;;8.60;99.90;;;;;;4960289;28;20432;-75
2023/12/18 07:57:04;;;;;;;12.07;5.55;;;8.60;99.90;;;;;;4943715;28;20047;-75
2023/12/18 07:59:29;;;;;;;8.75;4.90;;;8.60;99.90;;;;;;4977445;28;20062;-75
2023/12/18 08:01:55;;;;;;;6.63;4.40;;;8.60;99.90;;;;;;4960927;28;20290;-75
2023/12/18 08:04:21;;;;;;;13.90;4.85;;;8.60;99.90;;;;;;4951573;28;20046;-76
2023/12/18 08:06:47;;;;;;;12.80;5.10;;;8.60;99.90;;;;;;4959933;28;20046;-75
2023/12/18 08:09:13;;;;;;;6.72;4.32;;;8.60;99.90;;;;;;4959590;28;20063;-75
2023/12/18 08:11:39;;;;;;;10.85;4.07;;;8.60;99.90;;;;;;4976649;28;20335;-75
2023/12/18 08:14:05;;;;;;;7.15;4.90;;;8.60;99.90;;;;;;4976848;28;20062;-75
2023/12/18 08:16:31;;;;;;;24.85;6.57;;;8.60;99.90;;;;;;4963855;28;20057;-75
2023/12/18 08:18:57;;;;;;;7.55;4.10;;;8.60;99.90;;;;;;4946290;28;20050;-75
2023/12/18 08:21:24;;;;;;;10.52;4.05;;;8.60;99.90;;;;;;4944923;28;20113;-75
2023/12/18 08:23:50;;;;;;;11.20;4.35;;;8.60;99.90;;;;;;4977970;28;20513;-76
2023/12/18 08:26:17;;;;;;;12.43;5.00;;;8.60;99.90;;;;;;4964047;28;20074;-75
2023/12/18 08:28:43;;;;;;;8.68;4.65;;;8.60;99.90;;;;;;4945976;28;20058;-75
2023/12/18 08:31:08;;;;;;;7.53;5.00;;;8.60;99.90;;;;;;4963202;28;20512;-75
2023/12/18 08:33:34;;;;;;;10.45;4.50;;;8.60;99.90;;;;;;4964195;28;20047;-75
2023/12/18 08:35:59;;;;;;;9.73;4.70;;;8.60;99.90;;;;;;4963872;28;20431;-75
2023/12/18 08:38:27;;;;;;;7.13;5.35;;;8.60;99.90;;;;;;4957481;28;20055;-74
2023/12/18 08:40:53;;;;;;;13.00;6.72;;;8.60;99.90;;;;;;4965083;28;20054;-75
2023/12/18 08:43:19;;;;;;;11.60;5.32;;;8.60;99.90;;;;;;4965981;28;20051;-75
2023/12/18 08:45:44;;;;;;;11.18;5.45;;;8.60;99.90;;;;;;4962281;28;20049;-75
2023/12/18 08:48:10;;;;;;;11.77;4.97;;;8.60;99.90;;;;;;4947917;28;20047;-74
2023/12/18 08:50:35;;;;;;;14.82;5.85;;;8.60;99.90;;;;;;4979971;28;20047;-75
2023/12/18 08:53:01;;;;;;;12.18;4.72;;;8.60;99.90;;;;;;4980154;28;20125;-75
2023/12/18 08:55:27;;;;;;;8.88;5.35;;;8.50;99.90;;;;;;4978670;28;20047;-76
2023/12/18 08:57:52;;;;;;;9.48;5.53;;;8.50;99.90;;;;;;4979791;28;20043;-76
2023/12/18 09:00:18;;;;;;;14.07;5.38;;;8.50;99.90;;;;;;4965364;28;20051;-74
2023/12/18 09:02:44;;;;;;;9.80;5.63;;;8.50;99.90;;;;;;4964811;28;20498;-76
2023/12/18 09:05:09;;;;;;;12.88;7.82;;;8.50;99.90;;;;;;4964406;28;20047;-75
2023/12/18 09:07:35;;;;;;;14.30;6.53;;;8.50;99.90;;;;;;4954814;28;20043;-76
2023/12/18 09:10:00;;;;;;;9.75;5.72;;;8.50;99.90;;;;;;4988157;28;20158;-76
2023/12/18 09:12:26;;;;;;;12.75;4.78;;;8.50;99.90;;;;;;4963121;28;20113;-76
2023/12/18 09:14:52;;;;;;;12.50;6.93;;;8.50;99.90;;;;;;4972829;28;20422;-76
2023/12/18 09:17:17;;;;;;;12.00;5.28;;;8.50;99.90;;;;;;4965112;28;20039;-76
2023/12/18 09:19:43;;;;;;;8.70;4.20;;;8.50;99.90;;;;;;4947902;28;20635;-76
2023/12/18 09:22:09;;;;;;;12.02;6.82;;;8.50;99.90;;;;;;4987008;28;20039;-76
2023/12/18 09:24:34;;;;;;;11.32;4.82;;;8.50;99.90;;;;;;4961901;28;20157;-77
2023/12/18 09:27:00;;;;;;;11.45;5.45;;;8.50;99.90;;;;;;4963026;28;20054;-76
2023/12/18 09:29:26;;;;;;;16.90;6.30;;;8.50;99.90;;;;;;4933182;28;20113;-77
2023/12/18 09:31:51;;;;;;;13.65;5.38;;;8.50;99.90;;;;;;4979377;28;20043;-76
2023/12/18 09:34:17;;;;;;;19.63;6.60;;;8.50;99.90;;;;;;4964913;28;20540;-76
2023/12/18 09:36:42;;;;;;;11.93;5.93;;;8.50;99.90;;;;;;4966073;28;20094;-76
2023/12/18 09:39:09;;;;;;;11.65;4.90;;;8.50;99.90;;;;;;4946825;28;20039;-76
2023/12/18 09:41:35;;;;;;;13.95;5.57;;;8.50;99.90;;;;;;4963450;28;20146;-76
2023/12/18 09:44:01;;;;;;;15.98;5.60;;;8.60;99.90;;;;;;4964568;28;20125;-76
2023/12/18 09:46:26;;;;;;;11.98;4.80;;;8.60;99.90;;;;;;4963070;28;20544;-76
2023/12/18 09:48:53;;;;;;;7.88;4.45;;;8.60;99.90;;;;;;4931777;28;20045;-76
2023/12/18 09:51:26;;;;;;;10.52;5.75;;;8.60;99.90;;;;;;4962273;28;20147;-76
2023/12/18 09:53:52;;;;;;;;;;;8.60;99.90;;;;;;4978933;28;20034;-76
2023/12/18 09:56:20;;;;;;;15.93;5.30;;;8.60;99.90;;;;;;4964444;28;20029;-76
2023/12/18 09:58:46;;;;;;;13.90;5.05;;;8.60;99.90;;;;;;4947472;28;20820;-76
2023/12/18 10:01:12;;;;;;;11.93;5.32;;;8.60;99.90;;;;;;4946135;28;20766;-76
2023/12/18 10:03:38;;;;;;;18.33;6.18;;;8.70;99.90;;;;;;4947160;28;20042;-76
2023/12/18 10:06:04;;;;;;;11.52;5.57;;;8.70;99.90;;;;;;4953746;28;20402;-77
2023/12/18 10:08:30;;;;;;;9.75;5.40;;;8.70;99.90;;;;;;4947008;28;20078;-77
2023/12/18 10:10:55;;;;;;;11.95;5.55;;;8.70;99.90;;;;;;4963407;28;20075;-76
2023/12/18 10:13:22;;;;;;;19.25;8.57;;;8.70;99.90;;;;;;4961733;28;20042;-76
2023/12/18 10:15:47;;;;;;;16.63;6.28;;;8.70;99.90;;;;;;4995398;28;20126;-76
2023/12/18 10:18:16;;;;;;;8.73;5.40;;;8.70;99.90;;;;;;4963125;28;20117;-76
2023/12/18 10:20:42;;;;;;;14.10;6.45;;;8.70;99.90;;;;;;4962649;28;20046;-76
2023/12/18 10:23:08;;;;;;;17.00;5.68;;;8.70;99.90;;;;;;4963510;28;20165;-76
2023/12/18 10:25:35;;;;;;;12.55;5.70;;;8.70;99.90;;;;;;4962196;28;20062;-76
2023/12/18 10:28:01;;;;;;;9.70;6.20;;;8.60;99.90;;;;;;4963110;28;20121;-76
2023/12/18 10:30:29;;;;;;;14.38;6.75;;;8.70;99.90;;;;;;4963125;28;20118;-76
2023/12/18 10:32:59;;;;;;;12.38;5.90;;;8.70;99.90;;;;;;4961202;28;20058;-76
2023/12/18 10:35:25;;;;;;;6.85;4.53;;;8.70;99.90;;;;;;4945847;28;20074;-77
2023/12/18 10:37:54;;;;;;;13.52;5.63;;;8.70;99.90;;;;;;4961864;28;20042;-76
2023/12/18 10:40:23;;;;;;;8.70;5.57;;;8.70;99.90;;;;;;4978218;28;20074;-76
2023/12/18 10:43:03;;;;;;;16.13;5.85;;;8.70;99.90;;;;;;4962356;28;20541;-76
2023/12/18 10:45:30;;;;;;;10.18;5.10;;;8.70;99.90;;;;;;4929378;28;20548;-76
2023/12/18 10:47:58;;;;;;;10.98;5.35;;;8.70;99.90;;;;;;4944014;28;20444;-77
2023/12/18 10:50:24;;;;;;;10.95;5.15;;;8.70;99.90;;;;;;4943558;28;20601;-76
2023/12/18 10:52:53;;;;;;;14.07;6.30;;;8.70;99.90;;;;;;4978086;28;20042;-77
2023/12/18 10:55:20;;;;;;;10.27;5.30;;;8.70;99.90;;;;;;4975590;28;20057;-76
2023/12/18 10:57:49;;;;;;;9.38;5.18;;;8.80;99.90;;;;;;4969716;28;20042;-83
2023/12/18 11:00:15;;;;;;;9.68;5.28;;;8.70;99.90;;;;;;4962247;28;20053;-77
2023/12/18 11:02:42;;;;;;;11.35;5.35;;;8.80;99.90;;;;;;4962755;28;20046;-77
2023/12/18 11:05:08;;;;;;;9.82;5.60;;;8.80;99.90;;;;;;4976997;28;20050;-77
2023/12/18 11:07:35;;;;;;;16.17;6.60;;;8.80;99.90;;;;;;4951183;28;20093;-76
2023/12/18 11:10:02;;;;;;;11.10;5.88;;;8.80;99.90;;;;;;4962492;28;20053;-77
2023/12/18 11:12:28;;;;;;;12.80;4.97;;;8.80;99.90;;;;;;4944123;28;20053;-78
2023/12/18 11:15:00;;;;;;;12.23;5.63;;;8.80;99.90;;;;;;4960684;28;20050;-75
2023/12/18 11:17:37;;;;;;;14.00;6.40;;;8.80;99.90;;;;;;4967743;28;20085;-83
2023/12/18 11:20:24;;;;;;;12.40;5.95;;;8.80;99.90;;;;;;4973167;28;20042;-74
2023/12/18 11:22:55;;;;;;;12.27;5.72;;;8.80;99.90;;;;;;4958751;28;20433;-77
2023/12/18 11:25:21;;;;;;;9.90;5.90;;;8.80;99.90;;;;;;4943261;28;20066;-76
2023/12/18 11:27:51;;;;;;;21.52;5.80;;;8.90;99.90;;;;;;4975752;28;20523;-74
2023/12/18 11:30:40;;;;;;;12.52;5.32;;;8.90;99.90;;;;;;4960711;28;20414;-74
2023/12/18 11:33:08;;;;;;;9.75;4.80;;;8.80;99.90;;;;;;4968308;28;20256;-74
2023/12/18 11:35:35;;;;;;;11.50;4.82;;;8.90;99.90;;;;;;4963046;28;20054;-75
2023/12/18 11:38:09;;;;;;;9.68;5.07;;;8.90;99.90;;;;;;4942423;28;20466;-75
2023/12/18 11:40:43;;;;;;;11.63;5.82;;;8.90;99.90;;;;;;4961096;28;20042;-75
2023/12/18 11:43:10;;;;;;;10.13;5.93;;;8.90;99.90;;;;;;4957806;28;20047;-75
2023/12/18 11:45:42;;;;;;;10.88;4.97;;;8.90;99.90;;;;;;4959980;28;20524;-74
2023/12/18 11:48:08;;;;;;;13.48;6.30;;;8.90;99.90;;;;;;4940970;28;20073;-75
2023/12/18 11:50:38;;;;;;;11.75;5.50;;;8.90;99.90;;;;;;4957193;28;20047;-76
2023/12/18 11:53:07;;;;;;;10.52;5.45;;;8.90;99.90;;;;;;4941770;28;20047;-75
2023/12/18 11:55:42;;;;;;;12.68;6.68;;;9.00;99.90;;;;;;4954462;28;20043;-75
2023/12/18 11:58:08;;;;;;;9.75;5.70;;;8.90;99.90;;;;;;4930395;28;20046;-75
2023/12/18 12:00:35;;;;;;;12.50;5.63;;;8.90;99.90;;;;;;4942040;28;20039;-75
2023/12/18 12:03:01;;;;;;;9.05;5.10;;;8.90;99.90;;;;;;4926518;28;20407;-75
2023/12/18 12:05:28;;;;;;;12.30;5.13;;;9.00;99.90;;;;;;4972658;28;20047;-75
2023/12/18 12:07:54;;;;;;;12.40;5.00;;;9.00;99.90;;;;;;4973391;28;20110;-75
2023/12/18 12:10:20;;;;;;;9.00;4.10;;;9.00;99.90;;;;;;4975388;28;20043;-76
2023/12/18 12:12:53;;;;;;;8.07;4.40;;;9.00;99.90;;;;;;4975367;28;20060;-76
2023/12/18 12:15:21;;;;;;;13.90;5.05;;;9.00;99.90;;;;;;4975530;28;20102;-76
2023/12/18 12:17:48;;;;;;;11.38;4.13;;;9.00;99.90;;;;;;4992638;28;20616;-75
2023/12/18 12:20:14;;;;;;;9.00;4.15;;;9.00;99.90;;;;;;4975343;28;20074;-76
2023/12/18 12:22:40;;;;;;;9.55;4.40;;;9.00;99.90;;;;;;4959188;28;20093;-76
2023/12/18 12:25:06;;;;;;;10.13;4.70;;;9.00;99.90;;;;;;4960398;28;20082;-76
2023/12/18 12:27:32;;;;;;;8.82;4.57;;;9.00;99.90;;;;;;4958894;28;20058;-76
2023/12/18 12:29:58;;;;;;;11.52;5.35;;;9.00;99.90;;;;;;4943241;28;20741;-76
2023/12/18 12:32:24;;;;;;;9.15;4.75;;;9.00;99.90;;;;;;4942368;28;20074;-74
2023/12/18 12:34:50;;;;;;;11.85;4.90;;;9.00;99.90;;;;;;4940498;28;20038;-75
2023/12/18 12:37:16;;;;;;;6.35;5.05;;;9.00;99.90;;;;;;4974083;28;20046;-74
2023/12/18 12:40:02;;;;;;;8.27;4.97;;;9.00;99.90;;;;;;4975083;28;20047;-75
2023/12/18 12:42:29;;;;;;;8.77;5.63;;;9.00;99.90;;;;;;4977301;28;20051;-73
2023/12/18 12:44:55;;;;;;;12.57;5.13;;;9.00;99.90;;;;;;4974378;28;20054;-73
2023/12/18 12:47:21;;;;;;;11.20;5.28;;;9.00;99.90;;;;;;4972667;28;20068;-75
2023/12/18 12:49:48;;;;;;;10.25;4.95;;;9.00;99.90;;;;;;4959254;28;20089;-76
2023/12/18 12:52:15;;;;;;;9.32;4.13;;;9.00;99.90;;;;;;4956112;28;20057;-75